sensor_id;sensor_type;location;lat;lon;timestamp;P1;durP1;ratioP1;P2;durP2;ratioP2
81487;SDS011;70897;52.464;13.428;2024-03-08T00:01:12;40.45;;;20.70;;
81487;SDS011;70897;52.464;13.428;2024-03-08T00:03:57;38.50;;;20.67;;
81487;SDS011;70897;52.464;13.428;2024-03-08T00:06:42;37.85;;;20.83;;
81487;SDS011;70897;52.464;13.428;2024-03-08T00:09:30;39.53;;;20.30;;
81487;SDS011;70897;52.464;13.428;2024-03-08T00:12:15;36.08;;;20.13;;
81487;SDS011;70897;52.464;13.428;2024-03-08T00:15:00;38.80;;;20.23;;
81487;SDS011;70897;52.464;13.428;2024-03-08T00:17:45;38.35;;;20.30;;
81487;SDS011;70897;52.464;13.428;2024-03-08T00:20:31;37.97;;;19.80;;
81487;SDS011;70897;52.464;13.428;2024-03-08T00:23:16;42.95;;;20.27;;
81487;SDS011;70897;52.464;13.428;2024-03-08T00:26:01;37.50;;;19.55;;
81487;SDS011;70897;52.464;13.428;2024-03-08T00:28:48;39.20;;;20.15;;
81487;SDS011;70897;52.464;13.428;2024-03-08T00:31:36;43.67;;;21.25;;
81487;SDS011;70897;52.464;13.428;2024-03-08T00:34:22;41.80;;;20.45;;
81487;SDS011;70897;52.464;13.428;2024-03-08T00:37:07;39.58;;;21.08;;
81487;SDS011;70897;52.464;13.428;2024-03-08T00:39:53;40.97;;;19.52;;
81487;SDS011;70897;52.464;13.428;2024-03-08T00:42:38;43.58;;;20.52;;
81487;SDS011;70897;52.464;13.428;2024-03-08T00:45:24;38.10;;;19.88;;
81487;SDS011;70897;52.464;13.428;2024-03-08T00:48:09;39.40;;;20.27;;
81487;SDS011;70897;52.464;13.428;2024-03-08T00:50:55;43.10;;;21.25;;
81487;SDS011;70897;52.464;13.428;2024-03-08T00:53:40;39.28;;;20.65;;
81487;SDS011;70897;52.464;13.428;2024-03-08T00:56:25;42.72;;;20.70;;
81487;SDS011;70897;52.464;13.428;2024-03-08T00:59:10;38.08;;;20.15;;
81487;SDS011;70897;52.464;13.428;2024-03-08T01:01:55;36.95;;;19.52;;
81487;SDS011;70897;52.464;13.428;2024-03-08T01:04:40;41.92;;;20.15;;
81487;SDS011;70897;52.464;13.428;2024-03-08T01:07:25;38.28;;;19.73;;
81487;SDS011;70897;52.464;13.428;2024-03-08T01:10:11;38.75;;;20.25;;
81487;SDS011;70897;52.464;13.428;2024-03-08T01:12:56;41.17;;;20.20;;
81487;SDS011;70897;52.464;13.428;2024-03-08T01:15:41;37.85;;;19.90;;
81487;SDS011;70897;52.464;13.428;2024-03-08T01:18:26;41.42;;;19.95;;
81487;SDS011;70897;52.464;13.428;2024-03-08T01:21:11;40.40;;;19.77;;
81487;SDS011;70897;52.464;13.428;2024-03-08T01:23:56;44.22;;;20.90;;
81487;SDS011;70897;52.464;13.428;2024-03-08T01:26:41;38.92;;;20.40;;
81487;SDS011;70897;52.464;13.428;2024-03-08T01:29:27;39.75;;;20.42;;
81487;SDS011;70897;52.464;13.428;2024-03-08T01:32:13;39.25;;;20.00;;
81487;SDS011;70897;52.464;13.428;2024-03-08T01:34:59;42.28;;;20.40;;
81487;SDS011;70897;52.464;13.428;2024-03-08T01:37:44;43.60;;;20.65;;
81487;SDS011;70897;52.464;13.428;2024-03-08T01:40:29;44.50;;;21.27;;
81487;SDS011;70897;52.464;13.428;2024-03-08T01:43:18;42.25;;;21.83;;
81487;SDS011;70897;52.464;13.428;2024-03-08T01:46:09;43.65;;;20.73;;
81487;SDS011;70897;52.464;13.428;2024-03-08T01:48:57;41.13;;;20.15;;
81487;SDS011;70897;52.464;13.428;2024-03-08T01:51:42;41.25;;;21.38;;
81487;SDS011;70897;52.464;13.428;2024-03-08T01:54:27;44.20;;;21.00;;
81487;SDS011;70897;52.464;13.428;2024-03-08T01:57:14;41.55;;;20.58;;
81487;SDS011;70897;52.464;13.428;2024-03-08T02:00:00;40.00;;;20.40;;
81487;SDS011;70897;52.464;13.428;2024-03-08T02:02:50;46.05;;;21.20;;
81487;SDS011;70897;52.464;13.428;2024-03-08T02:05:38;42.13;;;21.10;;
81487;SDS011;70897;52.464;13.428;2024-03-08T02:08:25;40.05;;;20.58;;
81487;SDS011;70897;52.464;13.428;2024-03-08T02:11:11;40.50;;;20.63;;
81487;SDS011;70897;52.464;13.428;2024-03-08T02:13:57;40.10;;;20.75;;
81487;SDS011;70897;52.464;13.428;2024-03-08T02:16:42;41.80;;;21.63;;
81487;SDS011;70897;52.464;13.428;2024-03-08T02:19:27;40.53;;;20.50;;
81487;SDS011;70897;52.464;13.428;2024-03-08T02:22:12;43.58;;;20.52;;
81487;SDS011;70897;52.464;13.428;2024-03-08T02:25:01;44.10;;;21.38;;
81487;SDS011;70897;52.464;13.428;2024-03-08T02:27:47;41.13;;;21.33;;
81487;SDS011;70897;52.464;13.428;2024-03-08T02:30:33;45.17;;;21.65;;
81487;SDS011;70897;52.464;13.428;2024-03-08T02:33:18;42.75;;;21.40;;
81487;SDS011;70897;52.464;13.428;2024-03-08T02:36:04;42.88;;;20.88;;
81487;SDS011;70897;52.464;13.428;2024-03-08T02:38:50;41.85;;;21.15;;
81487;SDS011;70897;52.464;13.428;2024-03-08T02:41:36;43.95;;;21.88;;
81487;SDS011;70897;52.464;13.428;2024-03-08T02:44:21;43.17;;;21.58;;
81487;SDS011;70897;52.464;13.428;2024-03-08T02:47:06;46.90;;;22.02;;
81487;SDS011;70897;52.464;13.428;2024-03-08T02:49:51;42.70;;;22.00;;
81487;SDS011;70897;52.464;13.428;2024-03-08T02:52:36;43.10;;;22.50;;
81487;SDS011;70897;52.464;13.428;2024-03-08T02:55:22;41.72;;;20.55;;
81487;SDS011;70897;52.464;13.428;2024-03-08T02:58:10;49.45;;;22.63;;
81487;SDS011;70897;52.464;13.428;2024-03-08T03:00:55;42.58;;;22.17;;
81487;SDS011;70897;52.464;13.428;2024-03-08T03:03:42;43.78;;;22.30;;
81487;SDS011;70897;52.464;13.428;2024-03-08T03:06:27;46.95;;;22.88;;
81487;SDS011;70897;52.464;13.428;2024-03-08T03:09:12;42.63;;;21.85;;
81487;SDS011;70897;52.464;13.428;2024-03-08T03:12:01;47.78;;;22.48;;
81487;SDS011;70897;52.464;13.428;2024-03-08T03:14:46;46.90;;;22.52;;
81487;SDS011;70897;52.464;13.428;2024-03-08T03:17:31;43.00;;;21.88;;
81487;SDS011;70897;52.464;13.428;2024-03-08T03:20:17;41.88;;;21.55;;
81487;SDS011;70897;52.464;13.428;2024-03-08T03:23:10;47.08;;;22.40;;
81487;SDS011;70897;52.464;13.428;2024-03-08T03:25:58;47.03;;;23.70;;
81487;SDS011;70897;52.464;13.428;2024-03-08T03:28:44;46.70;;;23.48;;
81487;SDS011;70897;52.464;13.428;2024-03-08T03:31:29;48.17;;;22.52;;
81487;SDS011;70897;52.464;13.428;2024-03-08T03:34:15;44.92;;;22.42;;
81487;SDS011;70897;52.464;13.428;2024-03-08T03:37:00;47.45;;;22.85;;
81487;SDS011;70897;52.464;13.428;2024-03-08T03:39:47;49.97;;;24.52;;
81487;SDS011;70897;52.464;13.428;2024-03-08T03:42:37;47.10;;;22.20;;
81487;SDS011;70897;52.464;13.428;2024-03-08T03:45:23;48.92;;;24.60;;
81487;SDS011;70897;52.464;13.428;2024-03-08T03:48:08;48.35;;;23.48;;
81487;SDS011;70897;52.464;13.428;2024-03-08T03:50:53;49.50;;;23.60;;
81487;SDS011;70897;52.464;13.428;2024-03-08T03:53:38;51.60;;;24.05;;
81487;SDS011;70897;52.464;13.428;2024-03-08T03:56:26;48.30;;;24.65;;
81487;SDS011;70897;52.464;13.428;2024-03-08T03:59:11;47.25;;;24.45;;
81487;SDS011;70897;52.464;13.428;2024-03-08T04:01:56;50.47;;;23.83;;
81487;SDS011;70897;52.464;13.428;2024-03-08T04:04:41;49.95;;;23.90;;
81487;SDS011;70897;52.464;13.428;2024-03-08T04:07:26;52.47;;;24.48;;
81487;SDS011;70897;52.464;13.428;2024-03-08T04:10:11;49.40;;;24.42;;
81487;SDS011;70897;52.464;13.428;2024-03-08T04:12:56;52.22;;;25.13;;
81487;SDS011;70897;52.464;13.428;2024-03-08T04:15:41;48.47;;;24.20;;
81487;SDS011;70897;52.464;13.428;2024-03-08T04:18:28;50.78;;;24.88;;
81487;SDS011;70897;52.464;13.428;2024-03-08T04:21:13;50.42;;;25.05;;
81487;SDS011;70897;52.464;13.428;2024-03-08T04:23:58;53.55;;;26.27;;
81487;SDS011;70897;52.464;13.428;2024-03-08T04:26:43;50.35;;;25.15;;
81487;SDS011;70897;52.464;13.428;2024-03-08T04:29:30;52.22;;;25.30;;
81487;SDS011;70897;52.464;13.428;2024-03-08T04:32:16;58.30;;;27.48;;
81487;SDS011;70897;52.464;13.428;2024-03-08T04:35:01;53.75;;;26.63;;
81487;SDS011;70897;52.464;13.428;2024-03-08T04:37:48;56.50;;;26.10;;
81487;SDS011;70897;52.464;13.428;2024-03-08T04:40:33;59.13;;;27.52;;
81487;SDS011;70897;52.464;13.428;2024-03-08T04:43:18;51.60;;;26.48;;
81487;SDS011;70897;52.464;13.428;2024-03-08T04:46:05;51.42;;;26.02;;
81487;SDS011;70897;52.464;13.428;2024-03-08T04:48:50;55.92;;;27.17;;
81487;SDS011;70897;52.464;13.428;2024-03-08T04:51:35;57.08;;;26.75;;
81487;SDS011;70897;52.464;13.428;2024-03-08T04:54:20;58.00;;;27.90;;
81487;SDS011;70897;52.464;13.428;2024-03-08T04:57:05;56.25;;;26.92;;
81487;SDS011;70897;52.464;13.428;2024-03-08T04:59:50;57.28;;;27.60;;
81487;SDS011;70897;52.464;13.428;2024-03-08T05:02:35;58.13;;;28.60;;
81487;SDS011;70897;52.464;13.428;2024-03-08T05:05:21;53.95;;;27.20;;
81487;SDS011;70897;52.464;13.428;2024-03-08T05:08:07;63.83;;;28.60;;
81487;SDS011;70897;52.464;13.428;2024-03-08T05:10:52;60.35;;;28.08;;
81487;SDS011;70897;52.464;13.428;2024-03-08T05:13:37;59.58;;;28.55;;
81487;SDS011;70897;52.464;13.428;2024-03-08T05:16:23;59.90;;;27.73;;
81487;SDS011;70897;52.464;13.428;2024-03-08T05:19:09;55.30;;;27.75;;
81487;SDS011;70897;52.464;13.428;2024-03-08T05:21:54;65.28;;;29.17;;
81487;SDS011;70897;52.464;13.428;2024-03-08T05:24:39;59.00;;;28.02;;
81487;SDS011;70897;52.464;13.428;2024-03-08T05:27:24;64.20;;;29.73;;
81487;SDS011;70897;52.464;13.428;2024-03-08T05:30:09;61.80;;;27.92;;
81487;SDS011;70897;52.464;13.428;2024-03-08T05:32:59;58.63;;;28.00;;
81487;SDS011;70897;52.464;13.428;2024-03-08T05:35:44;60.25;;;29.73;;
81487;SDS011;70897;52.464;13.428;2024-03-08T05:38:29;62.08;;;28.63;;
81487;SDS011;70897;52.464;13.428;2024-03-08T05:41:14;59.35;;;29.27;;
81487;SDS011;70897;52.464;13.428;2024-03-08T05:43:59;64.35;;;31.33;;
81487;SDS011;70897;52.464;13.428;2024-03-08T05:46:44;65.60;;;29.77;;
81487;SDS011;70897;52.464;13.428;2024-03-08T05:49:30;64.60;;;30.25;;
81487;SDS011;70897;52.464;13.428;2024-03-08T05:52:15;64.93;;;28.80;;
81487;SDS011;70897;52.464;13.428;2024-03-08T05:55:00;62.00;;;29.42;;
81487;SDS011;70897;52.464;13.428;2024-03-08T05:57:45;62.00;;;30.20;;
81487;SDS011;70897;52.464;13.428;2024-03-08T06:00:30;57.92;;;28.67;;
81487;SDS011;70897;52.464;13.428;2024-03-08T06:03:15;63.67;;;29.50;;
81487;SDS011;70897;52.464;13.428;2024-03-08T06:06:00;59.05;;;28.67;;
81487;SDS011;70897;52.464;13.428;2024-03-08T06:08:47;56.13;;;28.17;;
81487;SDS011;70897;52.464;13.428;2024-03-08T06:11:33;58.80;;;29.05;;
81487;SDS011;70897;52.464;13.428;2024-03-08T06:14:19;60.22;;;28.05;;
81487;SDS011;70897;52.464;13.428;2024-03-08T06:17:04;51.90;;;26.38;;
81487;SDS011;70897;52.464;13.428;2024-03-08T06:19:51;52.75;;;27.52;;
81487;SDS011;70897;52.464;13.428;2024-03-08T06:22:39;54.45;;;27.33;;
81487;SDS011;70897;52.464;13.428;2024-03-08T06:25:26;54.95;;;28.05;;
81487;SDS011;70897;52.464;13.428;2024-03-08T06:28:11;50.42;;;26.85;;
81487;SDS011;70897;52.464;13.428;2024-03-08T06:30:59;50.60;;;26.75;;
81487;SDS011;70897;52.464;13.428;2024-03-08T06:33:44;47.42;;;26.08;;
81487;SDS011;70897;52.464;13.428;2024-03-08T06:36:29;50.15;;;26.35;;
81487;SDS011;70897;52.464;13.428;2024-03-08T06:39:14;50.35;;;27.42;;
81487;SDS011;70897;52.464;13.428;2024-03-08T06:42:00;50.20;;;27.85;;
81487;SDS011;70897;52.464;13.428;2024-03-08T06:44:45;49.78;;;27.52;;
81487;SDS011;70897;52.464;13.428;2024-03-08T06:47:34;48.15;;;26.63;;
81487;SDS011;70897;52.464;13.428;2024-03-08T06:50:19;48.15;;;26.83;;
81487;SDS011;70897;52.464;13.428;2024-03-08T06:53:04;45.08;;;26.27;;
81487;SDS011;70897;52.464;13.428;2024-03-08T06:55:50;47.90;;;26.75;;
81487;SDS011;70897;52.464;13.428;2024-03-08T06:58:36;47.50;;;27.38;;
81487;SDS011;70897;52.464;13.428;2024-03-08T07:01:22;44.85;;;25.83;;
81487;SDS011;70897;52.464;13.428;2024-03-08T07:04:07;42.70;;;26.10;;
81487;SDS011;70897;52.464;13.428;2024-03-08T07:06:52;48.17;;;27.77;;
81487;SDS011;70897;52.464;13.428;2024-03-08T07:09:37;47.33;;;27.05;;
81487;SDS011;70897;52.464;13.428;2024-03-08T07:12:22;43.95;;;25.50;;
81487;SDS011;70897;52.464;13.428;2024-03-08T07:15:07;42.80;;;26.23;;
81487;SDS011;70897;52.464;13.428;2024-03-08T07:17:57;46.22;;;26.20;;
81487;SDS011;70897;52.464;13.428;2024-03-08T07:20:44;42.42;;;24.00;;
81487;SDS011;70897;52.464;13.428;2024-03-08T07:23:29;44.58;;;24.90;;
81487;SDS011;70897;52.464;13.428;2024-03-08T07:26:52;38.78;;;24.27;;
81487;SDS011;70897;52.464;13.428;2024-03-08T07:29:40;40.80;;;25.70;;
81487;SDS011;70897;52.464;13.428;2024-03-08T07:32:25;38.58;;;24.40;;
81487;SDS011;70897;52.464;13.428;2024-03-08T07:35:13;39.88;;;24.65;;
81487;SDS011;70897;52.464;13.428;2024-03-08T07:37:58;43.72;;;26.25;;
81487;SDS011;70897;52.464;13.428;2024-03-08T07:40:44;41.95;;;25.38;;
81487;SDS011;70897;52.464;13.428;2024-03-08T07:43:29;39.53;;;24.42;;
81487;SDS011;70897;52.464;13.428;2024-03-08T07:46:14;44.25;;;26.20;;
81487;SDS011;70897;52.464;13.428;2024-03-08T07:49:03;39.03;;;24.20;;
81487;SDS011;70897;52.464;13.428;2024-03-08T07:51:48;38.83;;;24.85;;
81487;SDS011;70897;52.464;13.428;2024-03-08T07:54:33;41.92;;;24.38;;
81487;SDS011;70897;52.464;13.428;2024-03-08T07:57:19;47.13;;;25.85;;
81487;SDS011;70897;52.464;13.428;2024-03-08T08:00:05;42.33;;;24.98;;
81487;SDS011;70897;52.464;13.428;2024-03-08T08:02:53;44.60;;;26.80;;
81487;SDS011;70897;52.464;13.428;2024-03-08T08:05:38;37.97;;;25.27;;
81487;SDS011;70897;52.464;13.428;2024-03-08T08:08:23;43.63;;;25.45;;
81487;SDS011;70897;52.464;13.428;2024-03-08T08:11:10;39.42;;;24.90;;
81487;SDS011;70897;52.464;13.428;2024-03-08T08:13:56;40.67;;;25.20;;
81487;SDS011;70897;52.464;13.428;2024-03-08T08:16:41;39.67;;;24.38;;
81487;SDS011;70897;52.464;13.428;2024-03-08T08:19:27;39.00;;;24.00;;
81487;SDS011;70897;52.464;13.428;2024-03-08T08:22:12;41.15;;;23.90;;
81487;SDS011;70897;52.464;13.428;2024-03-08T08:24:57;42.00;;;24.25;;
81487;SDS011;70897;52.464;13.428;2024-03-08T08:27:42;41.00;;;23.60;;
81487;SDS011;70897;52.464;13.428;2024-03-08T08:30:27;35.72;;;22.25;;
81487;SDS011;70897;52.464;13.428;2024-03-08T08:33:12;35.25;;;20.25;;
81487;SDS011;70897;52.464;13.428;2024-03-08T08:35:57;37.78;;;22.20;;
81487;SDS011;70897;52.464;13.428;2024-03-08T08:38:42;34.70;;;21.08;;
81487;SDS011;70897;52.464;13.428;2024-03-08T08:41:27;35.95;;;21.58;;
81487;SDS011;70897;52.464;13.428;2024-03-08T08:44:13;31.15;;;19.90;;
81487;SDS011;70897;52.464;13.428;2024-03-08T08:46:59;35.42;;;21.00;;
81487;SDS011;70897;52.464;13.428;2024-03-08T08:49:45;33.00;;;21.58;;
81487;SDS011;70897;52.464;13.428;2024-03-08T08:52:34;33.45;;;21.13;;
81487;SDS011;70897;52.464;13.428;2024-03-08T08:55:19;37.92;;;20.75;;
81487;SDS011;70897;52.464;13.428;2024-03-08T08:58:10;28.85;;;20.23;;
81487;SDS011;70897;52.464;13.428;2024-03-08T09:00:55;34.38;;;21.75;;
81487;SDS011;70897;52.464;13.428;2024-03-08T09:03:40;32.67;;;20.90;;
81487;SDS011;70897;52.464;13.428;2024-03-08T09:06:25;27.63;;;20.25;;
81487;SDS011;70897;52.464;13.428;2024-03-08T09:09:11;31.33;;;21.42;;
81487;SDS011;70897;52.464;13.428;2024-03-08T09:11:59;30.58;;;21.20;;
81487;SDS011;70897;52.464;13.428;2024-03-08T09:14:44;30.77;;;20.65;;
81487;SDS011;70897;52.464;13.428;2024-03-08T09:17:29;29.23;;;20.15;;
81487;SDS011;70897;52.464;13.428;2024-03-08T09:20:14;34.97;;;22.65;;
81487;SDS011;70897;52.464;13.428;2024-03-08T09:22:59;33.13;;;21.75;;
81487;SDS011;70897;52.464;13.428;2024-03-08T09:25:44;30.52;;;21.02;;
81487;SDS011;70897;52.464;13.428;2024-03-08T09:28:30;30.17;;;20.95;;
81487;SDS011;70897;52.464;13.428;2024-03-08T09:31:15;32.35;;;21.17;;
81487;SDS011;70897;52.464;13.428;2024-03-08T09:34:12;28.70;;;19.88;;
81487;SDS011;70897;52.464;13.428;2024-03-08T09:40:24;29.27;;;19.85;;
81487;SDS011;70897;52.464;13.428;2024-03-08T09:43:13;30.27;;;19.45;;
81487;SDS011;70897;52.464;13.428;2024-03-08T09:45:59;28.27;;;18.70;;
81487;SDS011;70897;52.464;13.428;2024-03-08T09:48:47;27.40;;;18.90;;
81487;SDS011;70897;52.464;13.428;2024-03-08T09:52:20;30.80;;;18.52;;
81487;SDS011;70897;52.464;13.428;2024-03-08T09:58:12;27.73;;;18.70;;
81487;SDS011;70897;52.464;13.428;2024-03-08T10:01:16;28.45;;;19.25;;
81487;SDS011;70897;52.464;13.428;2024-03-08T10:04:02;26.00;;;18.25;;
81487;SDS011;70897;52.464;13.428;2024-03-08T10:06:47;25.40;;;17.90;;
81487;SDS011;70897;52.464;13.428;2024-03-08T10:09:33;26.55;;;17.98;;
81487;SDS011;70897;52.464;13.428;2024-03-08T10:12:18;26.50;;;18.20;;
81487;SDS011;70897;52.464;13.428;2024-03-08T10:15:05;24.02;;;16.58;;
81487;SDS011;70897;52.464;13.428;2024-03-08T10:17:52;23.65;;;15.15;;
81487;SDS011;70897;52.464;13.428;2024-03-08T10:20:37;24.10;;;16.10;;
81487;SDS011;70897;52.464;13.428;2024-03-08T10:23:23;25.52;;;15.65;;
81487;SDS011;70897;52.464;13.428;2024-03-08T10:26:13;23.83;;;14.85;;
81487;SDS011;70897;52.464;13.428;2024-03-08T10:30:25;23.75;;;14.30;;
81487;SDS011;70897;52.464;13.428;2024-03-08T10:33:10;23.90;;;15.20;;
81487;SDS011;70897;52.464;13.428;2024-03-08T10:35:55;21.05;;;14.65;;
81487;SDS011;70897;52.464;13.428;2024-03-08T10:38:41;23.83;;;15.45;;
81487;SDS011;70897;52.464;13.428;2024-03-08T10:41:31;20.65;;;14.32;;
81487;SDS011;70897;52.464;13.428;2024-03-08T10:47:21;22.30;;;15.30;;
81487;SDS011;70897;52.464;13.428;2024-03-08T10:50:20;21.92;;;14.82;;
81487;SDS011;70897;52.464;13.428;2024-03-08T10:53:06;21.98;;;14.95;;
81487;SDS011;70897;52.464;13.428;2024-03-08T10:55:56;20.77;;;14.43;;
81487;SDS011;70897;52.464;13.428;2024-03-08T10:58:42;20.95;;;14.13;;
81487;SDS011;70897;52.464;13.428;2024-03-08T11:01:28;24.55;;;15.40;;
81487;SDS011;70897;52.464;13.428;2024-03-08T11:04:14;22.70;;;15.10;;
81487;SDS011;70897;52.464;13.428;2024-03-08T11:07:00;22.33;;;14.43;;
81487;SDS011;70897;52.464;13.428;2024-03-08T11:09:50;19.55;;;13.07;;
81487;SDS011;70897;52.464;13.428;2024-03-08T11:12:38;24.58;;;15.02;;
81487;SDS011;70897;52.464;13.428;2024-03-08T11:15:24;21.45;;;13.90;;
81487;SDS011;70897;52.464;13.428;2024-03-08T11:18:08;21.60;;;14.40;;
81487;SDS011;70897;52.464;13.428;2024-03-08T11:20:54;20.98;;;13.32;;
81487;SDS011;70897;52.464;13.428;2024-03-08T11:23:40;21.70;;;14.15;;
81487;SDS011;70897;52.464;13.428;2024-03-08T11:26:24;20.27;;;14.00;;
81487;SDS011;70897;52.464;13.428;2024-03-08T11:32:17;23.42;;;14.02;;
81487;SDS011;70897;52.464;13.428;2024-03-08T11:35:05;19.88;;;14.25;;
81487;SDS011;70897;52.464;13.428;2024-03-08T11:37:51;20.15;;;14.85;;
81487;SDS011;70897;52.464;13.428;2024-03-08T11:40:37;21.80;;;14.98;;
81487;SDS011;70897;52.464;13.428;2024-03-08T11:43:24;20.10;;;14.07;;
81487;SDS011;70897;52.464;13.428;2024-03-08T11:46:09;23.30;;;15.10;;
81487;SDS011;70897;52.464;13.428;2024-03-08T11:49:01;24.70;;;14.57;;
81487;SDS011;70897;52.464;13.428;2024-03-08T11:51:50;22.27;;;15.05;;
81487;SDS011;70897;52.464;13.428;2024-03-08T11:54:37;20.88;;;14.27;;
81487;SDS011;70897;52.464;13.428;2024-03-08T11:57:22;20.83;;;13.75;;
81487;SDS011;70897;52.464;13.428;2024-03-08T12:00:14;20.38;;;13.45;;
81487;SDS011;70897;52.464;13.428;2024-03-08T12:03:10;18.45;;;13.25;;
81487;SDS011;70897;52.464;13.428;2024-03-08T12:05:58;17.67;;;12.18;;
81487;SDS011;70897;52.464;13.428;2024-03-08T12:08:45;19.17;;;12.68;;
81487;SDS011;70897;52.464;13.428;2024-03-08T12:11:35;18.85;;;12.27;;
81487;SDS011;70897;52.464;13.428;2024-03-08T12:14:20;17.55;;;11.35;;
81487;SDS011;70897;52.464;13.428;2024-03-08T12:17:06;17.15;;;12.10;;
81487;SDS011;70897;52.464;13.428;2024-03-08T12:19:52;18.38;;;11.45;;
81487;SDS011;70897;52.464;13.428;2024-03-08T12:22:42;18.08;;;12.30;;
81487;SDS011;70897;52.464;13.428;2024-03-08T12:25:30;20.83;;;12.35;;
81487;SDS011;70897;52.464;13.428;2024-03-08T12:28:19;17.38;;;12.43;;
81487;SDS011;70897;52.464;13.428;2024-03-08T12:31:07;17.60;;;11.68;;
81487;SDS011;70897;52.464;13.428;2024-03-08T12:33:55;18.17;;;12.45;;
81487;SDS011;70897;52.464;13.428;2024-03-08T12:36:44;19.40;;;12.35;;
81487;SDS011;70897;52.464;13.428;2024-03-08T12:39:33;21.83;;;13.45;;
81487;SDS011;70897;52.464;13.428;2024-03-08T12:42:19;19.55;;;13.98;;
81487;SDS011;70897;52.464;13.428;2024-03-08T12:45:04;20.20;;;14.68;;
81487;SDS011;70897;52.464;13.428;2024-03-08T12:47:51;24.13;;;14.82;;
81487;SDS011;70897;52.464;13.428;2024-03-08T12:50:37;24.17;;;15.05;;
81487;SDS011;70897;52.464;13.428;2024-03-08T12:53:22;25.38;;;17.50;;
81487;SDS011;70897;52.464;13.428;2024-03-08T12:56:07;21.83;;;14.05;;
81487;SDS011;70897;52.464;13.428;2024-03-08T12:58:53;24.05;;;16.02;;
81487;SDS011;70897;52.464;13.428;2024-03-08T13:01:38;23.90;;;16.65;;
81487;SDS011;70897;52.464;13.428;2024-03-08T13:04:23;26.80;;;16.63;;
81487;SDS011;70897;52.464;13.428;2024-03-08T13:07:08;23.02;;;14.70;;
81487;SDS011;70897;52.464;13.428;2024-03-08T13:09:53;20.38;;;14.02;;
81487;SDS011;70897;52.464;13.428;2024-03-08T13:12:39;23.35;;;14.90;;
81487;SDS011;70897;52.464;13.428;2024-03-08T13:15:26;22.08;;;14.70;;
81487;SDS011;70897;52.464;13.428;2024-03-08T13:18:11;22.63;;;14.98;;
81487;SDS011;70897;52.464;13.428;2024-03-08T13:20:56;21.63;;;14.38;;
81487;SDS011;70897;52.464;13.428;2024-03-08T13:23:41;23.67;;;14.75;;
81487;SDS011;70897;52.464;13.428;2024-03-08T13:26:30;21.80;;;15.18;;
81487;SDS011;70897;52.464;13.428;2024-03-08T13:29:17;20.65;;;14.80;;
81487;SDS011;70897;52.464;13.428;2024-03-08T13:32:02;22.23;;;14.48;;
81487;SDS011;70897;52.464;13.428;2024-03-08T13:34:47;23.83;;;14.80;;
81487;SDS011;70897;52.464;13.428;2024-03-08T13:37:35;23.35;;;15.27;;
81487;SDS011;70897;52.464;13.428;2024-03-08T13:40:20;32.55;;;20.05;;
81487;SDS011;70897;52.464;13.428;2024-03-08T13:43:05;21.25;;;14.95;;
81487;SDS011;70897;52.464;13.428;2024-03-08T13:45:54;21.40;;;15.02;;
81487;SDS011;70897;52.464;13.428;2024-03-08T13:48:40;22.33;;;14.15;;
81487;SDS011;70897;52.464;13.428;2024-03-08T13:51:25;18.20;;;12.77;;
81487;SDS011;70897;52.464;13.428;2024-03-08T13:54:11;131.30;;;46.30;;
81487;SDS011;70897;52.464;13.428;2024-03-08T13:56:56;20.65;;;13.75;;
81487;SDS011;70897;52.464;13.428;2024-03-08T13:59:41;20.55;;;12.65;;
81487;SDS011;70897;52.464;13.428;2024-03-08T14:02:26;17.88;;;12.30;;
81487;SDS011;70897;52.464;13.428;2024-03-08T14:05:13;20.27;;;12.68;;
81487;SDS011;70897;52.464;13.428;2024-03-08T14:08:01;20.08;;;13.05;;
81487;SDS011;70897;52.464;13.428;2024-03-08T14:10:49;19.08;;;13.20;;
81487;SDS011;70897;52.464;13.428;2024-03-08T14:13:40;21.05;;;12.88;;
81487;SDS011;70897;52.464;13.428;2024-03-08T14:16:31;22.15;;;12.73;;
81487;SDS011;70897;52.464;13.428;2024-03-08T14:19:16;19.92;;;11.50;;
81487;SDS011;70897;52.464;13.428;2024-03-08T14:22:01;19.13;;;12.55;;
81487;SDS011;70897;52.464;13.428;2024-03-08T14:24:48;20.67;;;13.18;;
81487;SDS011;70897;52.464;13.428;2024-03-08T14:27:34;25.05;;;13.50;;
81487;SDS011;70897;52.464;13.428;2024-03-08T14:30:19;20.98;;;13.02;;
81487;SDS011;70897;52.464;13.428;2024-03-08T14:33:16;23.25;;;13.40;;
81487;SDS011;70897;52.464;13.428;2024-03-08T14:36:01;23.02;;;13.23;;
81487;SDS011;70897;52.464;13.428;2024-03-08T14:38:46;23.08;;;13.45;;
81487;SDS011;70897;52.464;13.428;2024-03-08T14:41:32;24.70;;;12.90;;
81487;SDS011;70897;52.464;13.428;2024-03-08T14:44:17;22.35;;;12.75;;
81487;SDS011;70897;52.464;13.428;2024-03-08T14:47:03;20.63;;;12.63;;
81487;SDS011;70897;52.464;13.428;2024-03-08T14:49:50;21.30;;;12.65;;
81487;SDS011;70897;52.464;13.428;2024-03-08T14:52:35;25.55;;;14.65;;
81487;SDS011;70897;52.464;13.428;2024-03-08T14:55:20;23.70;;;12.95;;
81487;SDS011;70897;52.464;13.428;2024-03-08T14:58:09;20.00;;;12.15;;
81487;SDS011;70897;52.464;13.428;2024-03-08T15:00:55;21.70;;;12.32;;
81487;SDS011;70897;52.464;13.428;2024-03-08T15:03:44;19.70;;;12.15;;
81487;SDS011;70897;52.464;13.428;2024-03-08T15:06:29;20.70;;;12.30;;
81487;SDS011;70897;52.464;13.428;2024-03-08T15:09:16;20.77;;;11.43;;
81487;SDS011;70897;52.464;13.428;2024-03-08T15:12:04;21.15;;;11.43;;
81487;SDS011;70897;52.464;13.428;2024-03-08T15:14:50;18.10;;;10.82;;
81487;SDS011;70897;52.464;13.428;2024-03-08T15:17:37;19.65;;;10.88;;
81487;SDS011;70897;52.464;13.428;2024-03-08T15:20:25;18.90;;;11.27;;
81487;SDS011;70897;52.464;13.428;2024-03-08T15:23:13;19.45;;;11.20;;
81487;SDS011;70897;52.464;13.428;2024-03-08T15:25:58;20.13;;;11.45;;
81487;SDS011;70897;52.464;13.428;2024-03-08T15:28:44;21.23;;;12.45;;
81487;SDS011;70897;52.464;13.428;2024-03-08T15:31:31;20.67;;;11.52;;
81487;SDS011;70897;52.464;13.428;2024-03-08T15:34:17;20.40;;;12.23;;
81487;SDS011;70897;52.464;13.428;2024-03-08T15:37:05;22.02;;;11.50;;
81487;SDS011;70897;52.464;13.428;2024-03-08T15:39:51;19.38;;;11.52;;
81487;SDS011;70897;52.464;13.428;2024-03-08T15:42:36;21.00;;;12.45;;
81487;SDS011;70897;52.464;13.428;2024-03-08T15:45:21;20.13;;;11.35;;
81487;SDS011;70897;52.464;13.428;2024-03-08T15:48:11;19.20;;;11.80;;
81487;SDS011;70897;52.464;13.428;2024-03-08T15:50:57;19.90;;;11.65;;
81487;SDS011;70897;52.464;13.428;2024-03-08T15:53:42;24.85;;;13.50;;
81487;SDS011;70897;52.464;13.428;2024-03-08T15:56:28;20.48;;;12.27;;
81487;SDS011;70897;52.464;13.428;2024-03-08T15:59:13;20.55;;;11.77;;
81487;SDS011;70897;52.464;13.428;2024-03-08T16:01:58;22.00;;;12.20;;
81487;SDS011;70897;52.464;13.428;2024-03-08T16:04:43;19.85;;;11.85;;
81487;SDS011;70897;52.464;13.428;2024-03-08T16:07:29;20.38;;;11.98;;
81487;SDS011;70897;52.464;13.428;2024-03-08T16:10:15;20.67;;;11.70;;
81487;SDS011;70897;52.464;13.428;2024-03-08T16:13:00;25.02;;;13.18;;